createdAt,value
2022-10-03T00:00:25.902Z,97214.94
2022-10-03T00:03:30.694Z,97208.97
2022-10-03T00:06:09.269Z,97208.75
2022-10-03T00:09:15.380Z,97210.59
2022-10-03T00:11:55.613Z,97210.75
2022-10-03T00:14:35.388Z,97212.16
2022-10-03T00:17:11.273Z,97212.50
2022-10-03T00:19:48.425Z,97209.91
2022-10-03T00:22:28.290Z,97212.84
2022-10-03T00:25:07.573Z,97212.38
2022-10-03T00:27:41.701Z,97211.19
2022-10-03T00:30:22.915Z,97202.81
2022-10-03T00:33:11.766Z,97210.25
2022-10-03T00:35:56.181Z,97221.13
2022-10-03T00:39:03.542Z,97216.34
2022-10-03T00:42:14.927Z,97228.84
2022-10-03T00:45:09.303Z,97227.53
2022-10-03T00:47:55.655Z,97231.97
2022-10-03T00:50:53.541Z,97235.13
2022-10-03T00:53:34.349Z,97245.53
2022-10-03T00:56:24.102Z,97242.25
2022-10-03T00:59:10.946Z,97241.22
2022-10-03T01:01:45.700Z,97246.81
2022-10-03T01:04:31.551Z,97238.63
2022-10-03T01:07:12.303Z,97246.72
2022-10-03T01:09:55.188Z,97235.03
2022-10-03T01:12:58.953Z,97239.25
2022-10-03T01:15:37.940Z,97244.50
2022-10-03T01:18:19.473Z,97239.72
2022-10-03T01:20:57.607Z,97240.88
2022-10-03T01:24:09.243Z,97245.78
2022-10-03T01:26:55.929Z,97237.00
2022-10-03T01:29:51.256Z,97244.25
2022-10-03T01:32:24.514Z,97245.31
2022-10-03T01:35:01.386Z,97249.06
2022-10-03T01:37:40.248Z,97244.97
2022-10-03T01:40:18.991Z,97252.09
2022-10-03T01:43:02.926Z,97251.63
2022-10-03T01:45:43.231Z,97247.63
2022-10-03T01:48:16.022Z,97260.16
2022-10-03T01:50:53.459Z,97257.09
2022-10-03T01:53:30.637Z,97262.81
2022-10-03T01:56:04.972Z,97269.59
2022-10-03T01:58:42.159Z,97270.28
2022-10-03T02:01:16.522Z,97275.88
2022-10-03T02:03:51.016Z,97280.19
2022-10-03T02:06:25.309Z,97282.06
2022-10-03T02:08:57.949Z,97276.47
2022-10-03T02:11:34.827Z,97275.66
2022-10-03T02:14:15.890Z,97276.16
2022-10-03T02:16:47.662Z,97277.91
2022-10-03T02:19:22.978Z,97276.63
2022-10-03T02:21:53.182Z,97278.16
2022-10-03T02:24:42.395Z,97278.38
2022-10-03T02:27:52.585Z,97290.66
2022-10-03T02:30:22.863Z,97296.97
2022-10-03T02:33:31.906Z,97293.47
2022-10-03T02:36:49.734Z,97303.06
2022-10-03T02:39:38.977Z,97292.44
2022-10-03T02:42:50.625Z,97289.75
2022-10-03T02:46:01.285Z,97282.00
2022-10-03T02:49:12.230Z,97285.41
2022-10-03T02:52:09.002Z,97291.34
2022-10-03T02:55:15.363Z,97279.84
2022-10-03T02:58:10.450Z,97277.97
2022-10-03T03:01:22.023Z,97288.63
2022-10-03T03:04:23.559Z,97286.16
2022-10-03T03:07:27.812Z,97298.44
2022-10-03T03:10:39.125Z,97298.00
2022-10-03T03:13:39.942Z,97291.69
2022-10-03T03:16:34.379Z,97295.66
2022-10-03T03:19:18.397Z,97299.72
2022-10-03T03:21:54.825Z,97288.84
2022-10-03T03:24:45.225Z,97299.50
2022-10-03T03:27:40.503Z,97294.91
2022-10-03T03:30:12.986Z,97292.44
2022-10-03T03:32:54.345Z,97286.97
2022-10-03T03:35:33.812Z,97288.47
2022-10-03T03:38:16.120Z,97300.94
2022-10-03T03:40:47.474Z,97301.16
2022-10-03T03:43:34.332Z,97300.84
2022-10-03T03:46:16.240Z,97296.84
2022-10-03T03:49:09.148Z,97300.72
2022-10-03T03:51:47.037Z,97303.13
2022-10-03T03:54:40.242Z,97301.28
2022-10-03T03:57:40.921Z,97298.03
2022-10-03T04:00:15.770Z,97297.25
2022-10-03T04:03:04.956Z,97290.72
2022-10-03T04:05:46.240Z,97293.63
2022-10-03T04:08:30.069Z,97290.38
2022-10-03T04:11:07.166Z,97295.13
2022-10-03T04:13:50.919Z,97294.59
2022-10-03T04:16:50.449Z,97292.59
2022-10-03T04:19:29.646Z,97282.44
2022-10-03T04:22:15.599Z,97285.13
2022-10-03T04:25:20.633Z,97284.34
2022-10-03T04:28:22.427Z,97270.16
2022-10-03T04:31:05.719Z,97270.66
2022-10-03T04:33:51.366Z,97262.38
2022-10-03T04:36:47.087Z,97266.56
2022-10-03T04:39:27.427Z,97268.09
2022-10-03T04:42:04.068Z,97266.56
2022-10-03T04:44:45.578Z,97262.94
2022-10-03T04:47:23.338Z,97270.03
2022-10-03T04:49:56.932Z,97275.06
2022-10-03T04:52:39.233Z,97269.78
2022-10-03T04:55:16.221Z,97265.59
2022-10-03T04:57:52.819Z,97265.47
2022-10-03T05:00:25.439Z,97270.38
2022-10-03T05:03:05.190Z,97274.84
2022-10-03T05:05:49.453Z,97272.59
2022-10-03T05:08:36.020Z,97277.97
2022-10-03T05:11:12.561Z,97265.94
2022-10-03T05:13:53.169Z,97259.72
2022-10-03T05:16:30.790Z,97281.22
2022-10-03T05:19:11.116Z,97290.38
2022-10-03T05:21:45.660Z,97283.34
2022-10-03T05:24:24.738Z,97292.25
2022-10-03T05:27:01.608Z,97291.16
2022-10-03T05:29:38.781Z,97286.19
2022-10-03T05:32:19.219Z,97284.50
2022-10-03T05:35:03.364Z,97291.81
2022-10-03T05:37:48.770Z,97305.22
2022-10-03T05:40:20.261Z,97306.84
2022-10-03T05:43:02.636Z,97301.94
2022-10-03T05:45:46.268Z,97310.72
2022-10-03T05:48:24.423Z,97308.56
2022-10-03T05:51:20.810Z,97316.09
2022-10-03T05:54:15.453Z,97324.03
2022-10-03T05:57:01.796Z,97316.69
2022-10-03T05:59:43.630Z,97322.06
2022-10-03T06:02:45.749Z,97321.78
2022-10-03T06:05:18.212Z,97326.41
2022-10-03T06:08:03.299Z,97325.19
2022-10-03T06:10:46.187Z,97331.81
2022-10-03T06:13:21.516Z,97328.13
2022-10-03T06:15:58.133Z,97323.88
2022-10-03T06:18:57.627Z,97327.34
2022-10-03T06:21:47.309Z,97321.13
2022-10-03T06:24:34.671Z,97332.59
2022-10-03T06:27:34.866Z,97329.19
2022-10-03T06:30:42.815Z,97334.56
2022-10-03T06:33:55.169Z,97340.22
2022-10-03T06:36:33.591Z,97346.66
2022-10-03T06:39:56.398Z,97348.53
2022-10-03T06:42:53.961Z,97361.63
2022-10-03T06:45:53.600Z,97362.25
2022-10-03T06:48:36.188Z,97367.94
2022-10-03T06:51:44.663Z,97369.25
2022-10-03T06:54:38.618Z,97367.63
2022-10-03T06:57:49.322Z,97368.47
2022-10-03T07:00:21.493Z,97373.53
2022-10-03T07:03:19.805Z,97366.09
2022-10-03T07:06:22.275Z,97383.06
2022-10-03T07:09:28.617Z,97374.78
2022-10-03T07:12:27.962Z,97372.88
2022-10-03T07:15:43.621Z,97374.44
2022-10-03T07:18:44.442Z,97380.63
2022-10-03T07:21:40.397Z,97380.84
2022-10-03T07:24:35.764Z,97382.41
2022-10-03T07:27:21.011Z,97381.56
2022-10-03T07:30:14.571Z,97389.69
2022-10-03T07:33:12.950Z,97382.84
2022-10-03T07:36:08.815Z,97377.50
2022-10-03T07:39:24.131Z,97392.06
2022-10-03T07:42:25.935Z,97392.19
2022-10-03T07:45:30.453Z,97392.38
2022-10-03T07:48:31.853Z,97402.41
2022-10-03T07:51:15.028Z,97401.81
2022-10-03T07:54:27.303Z,97407.75
2022-10-03T07:57:20.165Z,97403.88
2022-10-03T08:00:07.406Z,97407.19
2022-10-03T08:03:00.758Z,97413.88
2022-10-03T08:05:46.213Z,97407.59
2022-10-03T08:08:38.087Z,97415.50
2022-10-03T08:11:21.981Z,97412.38
2022-10-03T08:14:02.344Z,97420.19
2022-10-03T08:17:02.030Z,97415.97
2022-10-03T08:19:59.472Z,97420.53
2022-10-03T08:22:38.368Z,97413.53
2022-10-03T08:25:27.987Z,97414.00
2022-10-03T08:28:27.171Z,97417.25
2022-10-03T08:31:21.093Z,97420.44
2022-10-03T08:34:26.593Z,97414.00
2022-10-03T08:37:12.119Z,97420.81
2022-10-03T08:39:59.254Z,97418.44
2022-10-03T08:42:59.893Z,97423.09
2022-10-03T08:45:56.175Z,97427.91
2022-10-03T08:48:59.775Z,97424.31
2022-10-03T08:52:05.121Z,97420.19
2022-10-03T08:55:00.128Z,97425.28
2022-10-03T08:58:09.063Z,97428.66
2022-10-03T09:01:14.661Z,97417.91
2022-10-03T09:04:51.207Z,97417.44
2022-10-03T09:07:38.078Z,97406.91
2022-10-03T09:10:53.247Z,97404.88
2022-10-03T09:14:06.254Z,97412.13
2022-10-03T09:16:48.933Z,97399.59
2022-10-03T09:20:02.364Z,97398.13
2022-10-03T09:23:14.580Z,97392.31
2022-10-03T09:26:18.666Z,97380.09
2022-10-03T09:29:16.526Z,97383.00
2022-10-03T09:32:30.611Z,97381.03
2022-10-03T09:35:23.436Z,97383.94
2022-10-03T09:38:23.465Z,97373.69
2022-10-03T09:41:28.626Z,97373.78
2022-10-03T09:44:17.607Z,97366.03
2022-10-03T09:47:44.870Z,97360.88
2022-10-03T09:50:55.261Z,97368.03
2022-10-03T09:53:54.513Z,97360.09
2022-10-03T09:57:05.193Z,97361.94
2022-10-03T09:59:52.321Z,97364.72
2022-10-03T10:02:51.928Z,97357.53
2022-10-03T10:05:55.404Z,97355.91
2022-10-03T10:08:42.930Z,97357.44
2022-10-03T10:11:23.656Z,97351.97
2022-10-03T10:14:21.019Z,97349.69
2022-10-03T10:17:32.479Z,97349.09
2022-10-03T10:20:11.469Z,97354.69
2022-10-03T10:23:11.060Z,97347.75
2022-10-03T10:26:19.791Z,97348.03
2022-10-03T10:29:16.999Z,97351.81
2022-10-03T10:32:19.146Z,97354.94
2022-10-03T10:35:30.725Z,97355.06
2022-10-03T10:38:34.984Z,97352.75
2022-10-03T10:41:42.264Z,97352.63
2022-10-03T10:44:57.402Z,97353.25
2022-10-03T10:48:01.453Z,97351.81
2022-10-03T10:51:05.148Z,97334.59
2022-10-03T10:54:28.099Z,97327.75
2022-10-03T10:57:09.476Z,97330.84
2022-10-03T11:00:15.158Z,97325.38
2022-10-03T11:03:42.610Z,97327.44
2022-10-03T11:06:53.490Z,97320.22
2022-10-03T11:09:47.460Z,97324.41
2022-10-03T11:12:52.901Z,97324.03
2022-10-03T11:16:07.631Z,97328.28
2022-10-03T11:19:08.785Z,97326.94
2022-10-03T11:22:18.147Z,97330.56
2022-10-03T11:25:32.947Z,97323.09
2022-10-03T11:28:54.837Z,97323.47
2022-10-03T11:31:56.074Z,97314.09
2022-10-03T11:35:14.496Z,97319.75
2022-10-03T11:37:47.150Z,97325.31
2022-10-03T11:40:33.976Z,97325.88
2022-10-03T11:43:37.934Z,97328.38
2022-10-03T11:46:23.386Z,97325.50
2022-10-03T11:48:56.964Z,97325.75
2022-10-03T11:51:38.879Z,97312.88
2022-10-03T11:54:30.507Z,97329.66
2022-10-03T11:57:09.466Z,97324.97
2022-10-03T11:59:52.938Z,97318.72
2022-10-03T12:02:55.361Z,97319.34
2022-10-03T12:05:28.017Z,97312.44
2022-10-03T12:08:28.914Z,97314.41
2022-10-03T12:11:09.423Z,97319.41
2022-10-03T12:13:46.786Z,97323.63
2022-10-03T12:16:27.739Z,97322.72
2022-10-03T12:19:05.341Z,97328.88
2022-10-03T12:21:47.930Z,97330.31
2022-10-03T12:24:29.877Z,97327.44
2022-10-03T12:27:07.369Z,97323.75
2022-10-03T12:29:41.071Z,97323.78
2022-10-03T12:32:22.013Z,97309.41
2022-10-03T12:34:59.334Z,97308.50
2022-10-03T12:37:43.429Z,97321.25
2022-10-03T12:40:20.225Z,97319.09
2022-10-03T12:42:57.007Z,97312.63
2022-10-03T12:45:33.101Z,97304.22
2022-10-03T12:48:13.235Z,97313.00
2022-10-03T12:50:47.691Z,97315.28
2022-10-03T12:53:31.441Z,97309.66
2022-10-03T12:56:07.702Z,97308.34
2022-10-03T12:58:47.561Z,97293.25
2022-10-03T13:01:28.447Z,97296.59
2022-10-03T13:04:00.190Z,97286.09
2022-10-03T13:07:02.299Z,97291.81
2022-10-03T13:09:46.208Z,97284.94
2022-10-03T13:12:27.811Z,97276.81
2022-10-03T13:15:44.362Z,97282.75
2022-10-03T13:18:30.345Z,97275.03
2022-10-03T13:21:26.804Z,97284.09
2022-10-03T13:24:00.228Z,97280.66
2022-10-03T13:26:40.671Z,97281.91
2022-10-03T13:29:25.303Z,97279.06
2022-10-03T13:32:06.755Z,97277.75
2022-10-03T13:34:45.261Z,97280.41
2022-10-03T13:37:22.361Z,97276.00
2022-10-03T13:39:53.701Z,97286.16
2022-10-03T13:42:32.195Z,97286.22
2022-10-03T13:45:04.906Z,97273.53
2022-10-03T13:47:47.486Z,97267.63
2022-10-03T13:50:21.533Z,97262.06
2022-10-03T13:52:56.591Z,97257.75
2022-10-03T13:55:33.022Z,97260.38
2022-10-03T13:58:26.426Z,97265.81
2022-10-03T14:01:13.700Z,97255.94
2022-10-03T14:03:53.667Z,97254.03
2022-10-03T14:06:37.358Z,97253.19
2022-10-03T14:09:30.978Z,97256.94
2022-10-03T14:12:07.092Z,97251.69
2022-10-03T14:15:14.413Z,97255.09
2022-10-03T14:17:51.447Z,97248.38
2022-10-03T14:20:26.684Z,97239.53
2022-10-03T14:23:16.240Z,97249.47
2022-10-03T14:25:48.838Z,97245.91
2022-10-03T14:28:26.434Z,97240.63
2022-10-03T14:31:06.467Z,97234.81
2022-10-03T14:33:44.602Z,97242.94
2022-10-03T14:36:30.512Z,97237.38
2022-10-03T14:39:26.771Z,97233.84
2022-10-03T14:42:22.242Z,97234.66
2022-10-03T14:44:56.565Z,97241.69
2022-10-03T14:47:24.393Z,97237.06
2022-10-03T14:49:59.518Z,97234.69
2022-10-03T14:52:35.374Z,97230.97
2022-10-03T14:55:14.028Z,97238.66
2022-10-03T14:58:09.261Z,97239.56
2022-10-03T15:00:42.963Z,97231.59
2022-10-03T15:03:29.778Z,97225.81
2022-10-03T15:06:21.118Z,97226.78
2022-10-03T15:08:53.237Z,97228.91
2022-10-03T15:11:27.943Z,97226.88
2022-10-03T15:13:58.650Z,97224.44
2022-10-03T15:16:27.573Z,97222.47
2022-10-03T15:18:58.323Z,97217.66
2022-10-03T15:21:28.416Z,97230.03
2022-10-03T15:24:00.129Z,97230.81
2022-10-03T15:26:34.111Z,97216.97
2022-10-03T15:29:06.073Z,97219.41
2022-10-03T15:31:36.647Z,97223.59
2022-10-03T15:34:08.379Z,97221.53
2022-10-03T15:36:40.095Z,97214.16
2022-10-03T15:39:17.981Z,97200.44
2022-10-03T15:41:54.260Z,97219.09
2022-10-03T15:44:28.915Z,97221.38
2022-10-03T15:47:01.624Z,97222.59
2022-10-03T15:49:33.863Z,97216.81
2022-10-03T15:52:12.063Z,97214.03
2022-10-03T15:54:41.043Z,97224.19
2022-10-03T15:57:20.011Z,97199.75
2022-10-03T15:59:53.259Z,97215.84
2022-10-03T16:02:27.241Z,97215.66
2022-10-03T16:04:57.184Z,97214.13
2022-10-03T16:07:34.921Z,97212.84
2022-10-03T16:10:14.725Z,97187.56
2022-10-03T16:13:04.039Z,97207.22
2022-10-03T16:15:50.295Z,97201.03
2022-10-03T16:18:54.755Z,97207.09
2022-10-03T16:21:44.582Z,97208.09
2022-10-03T16:24:29.650Z,97205.50
2022-10-03T16:27:07.290Z,97208.66
2022-10-03T16:29:39.745Z,97212.53
2022-10-03T16:32:10.873Z,97212.53
2022-10-03T16:34:43.637Z,97198.97
2022-10-03T16:37:19.210Z,97209.38
2022-10-03T16:39:54.922Z,97213.59
2022-10-03T16:42:26.714Z,97211.22
2022-10-03T16:44:58.630Z,97220.03
2022-10-03T16:47:34.125Z,97221.91
2022-10-03T16:50:19.575Z,97221.44
2022-10-03T16:52:52.063Z,97215.13
2022-10-03T16:55:23.853Z,97212.09
2022-10-03T16:57:56.899Z,97211.66
2022-10-03T17:00:32.676Z,97209.44
2022-10-03T17:03:02.788Z,97208.28
2022-10-03T17:05:38.316Z,97215.75
2022-10-03T17:08:36.806Z,97206.50
2022-10-03T17:10:58.281Z,97209.06
2022-10-03T17:13:33.564Z,97208.56
2022-10-03T17:16:09.345Z,97206.19
2022-10-03T17:18:44.591Z,97208.56
2022-10-03T17:21:23.583Z,97213.72
2022-10-03T17:24:01.997Z,97214.91
2022-10-03T17:26:35.939Z,97212.25
2022-10-03T17:29:12.086Z,97200.94
2022-10-03T17:31:46.533Z,97212.03
2022-10-03T17:34:18.266Z,97216.75
2022-10-03T17:37:11.762Z,97214.50
2022-10-03T17:39:46.748Z,97224.28
2022-10-03T17:42:29.029Z,97230.03
2022-10-03T17:44:59.681Z,97230.09
2022-10-03T17:47:39.124Z,97239.22
2022-10-03T17:50:12.198Z,97213.00
2022-10-03T17:52:42.488Z,97238.34
2022-10-03T17:55:18.890Z,97240.69
2022-10-03T17:57:50.219Z,97234.28
2022-10-03T18:00:21.248Z,97232.72
2022-10-03T18:02:57.048Z,97233.84
2022-10-03T18:05:28.596Z,97230.19
2022-10-03T18:07:58.068Z,97228.91
2022-10-03T18:10:30.049Z,97228.56
2022-10-03T18:13:02.093Z,97220.31
2022-10-03T18:16:03.225Z,97232.25
2022-10-03T18:19:00.752Z,97209.91
2022-10-03T18:21:38.255Z,97223.31
2022-10-03T18:24:32.632Z,97230.31
2022-10-03T18:27:20.145Z,97217.56
2022-10-03T18:29:52.987Z,97210.66
2022-10-03T18:32:25.376Z,97225.72
2022-10-03T18:35:06.588Z,97201.66
2022-10-03T18:38:09.294Z,97212.38
2022-10-03T18:40:41.575Z,97207.59
2022-10-03T18:43:33.714Z,97209.41
2022-10-03T18:46:14.233Z,97201.22
2022-10-03T18:49:24.053Z,97207.22
2022-10-03T18:51:46.116Z,97206.41
2022-10-03T18:54:26.494Z,97203.59
2022-10-03T18:57:08.730Z,97216.16
2022-10-03T18:59:46.263Z,97214.91
2022-10-03T19:02:21.066Z,97218.84
2022-10-03T19:04:55.386Z,97225.09
2022-10-03T19:07:26.187Z,97221.09
2022-10-03T19:10:21.152Z,97229.41
2022-10-03T19:12:53.057Z,97218.84
2022-10-03T19:15:33.016Z,97223.09
2022-10-03T19:18:14.042Z,97219.66
2022-10-03T19:20:44.947Z,97209.69
2022-10-03T19:23:18.739Z,97216.75
2022-10-03T19:25:52.261Z,97208.69
2022-10-03T19:28:23.899Z,97198.72
2022-10-03T19:31:00.133Z,97196.69
2022-10-03T19:33:30.125Z,97197.69
2022-10-03T19:36:03.981Z,97195.31
2022-10-03T19:38:37.191Z,97195.75
2022-10-03T19:41:10.154Z,97191.28
2022-10-03T19:43:41.482Z,97205.44
2022-10-03T19:46:29.544Z,97205.59
2022-10-03T19:49:19.445Z,97202.13
2022-10-03T19:51:48.624Z,97197.16
2022-10-03T19:54:34.858Z,97205.00
2022-10-03T19:57:05.654Z,97200.72
2022-10-03T19:59:46.328Z,97204.59
2022-10-03T20:02:14.198Z,97193.88
2022-10-03T20:04:42.188Z,97184.31
2022-10-03T20:07:17.604Z,97186.72
2022-10-03T20:09:57.369Z,97188.84
2022-10-03T20:12:27.748Z,97199.00
2022-10-03T20:15:01.531Z,97202.28
2022-10-03T20:17:30.827Z,97211.34
2022-10-03T20:20:03.157Z,97211.91
2022-10-03T20:22:36.321Z,97205.47
2022-10-03T20:25:09.046Z,97193.38
2022-10-03T20:27:42.529Z,97187.84
2022-10-03T20:30:25.370Z,97193.16
2022-10-03T20:32:56.511Z,97194.25
2022-10-03T20:35:26.361Z,97197.97
2022-10-03T20:37:57.293Z,97187.84
2022-10-03T20:40:35.118Z,97183.41
2022-10-03T20:43:24.846Z,97183.75
2022-10-03T20:46:13.004Z,97186.44
2022-10-03T20:48:50.117Z,97188.94
2022-10-03T20:51:22.873Z,97193.53
2022-10-03T20:53:54.859Z,97191.19
2022-10-03T20:56:34.717Z,97191.16
2022-10-03T20:59:06.573Z,97191.16
2022-10-03T21:01:38.294Z,97190.31
2022-10-03T21:04:12.085Z,97190.75
2022-10-03T21:06:53.827Z,97186.88
2022-10-03T21:09:27.433Z,97189.78
2022-10-03T21:11:57.155Z,97199.56
2022-10-03T21:14:28.095Z,97191.91
2022-10-03T21:16:57.326Z,97186.94
2022-10-03T21:19:30.999Z,97186.78
2022-10-03T21:22:01.507Z,97175.34
2022-10-03T21:24:33.263Z,97162.13
2022-10-03T21:27:06.471Z,97161.63
2022-10-03T21:29:36.053Z,97166.19
2022-10-03T21:32:23.189Z,97162.69
2022-10-03T21:35:01.793Z,97171.00
2022-10-03T21:37:36.801Z,97170.16
2022-10-03T21:40:21.414Z,97161.13
2022-10-03T21:43:02.735Z,97166.16
2022-10-03T21:45:40.068Z,97163.81
2022-10-03T21:48:20.174Z,97163.16
2022-10-03T21:50:54.552Z,97161.41
2022-10-03T21:53:31.188Z,97149.66
2022-10-03T21:56:14.198Z,97157.44
2022-10-03T21:59:07.576Z,97164.31
2022-10-03T22:01:41.856Z,97158.91
2022-10-03T22:04:16.646Z,97164.94
2022-10-03T22:06:52.079Z,97168.59
2022-10-03T22:09:19.783Z,97163.69
2022-10-03T22:11:54.541Z,97173.91
2022-10-03T22:14:37.646Z,97170.59
2022-10-03T22:17:15.872Z,97169.81
2022-10-03T22:19:48.348Z,97156.69
2022-10-03T22:22:37.937Z,97152.56
2022-10-03T22:25:15.537Z,97150.91
2022-10-03T22:27:49.778Z,97136.84
2022-10-03T22:30:21.894Z,97141.72
2022-10-03T22:32:56.108Z,97132.09
2022-10-03T22:35:52.432Z,97132.75
2022-10-03T22:38:24.098Z,97123.34
2022-10-03T22:40:52.347Z,97103.25
2022-10-03T22:43:21.628Z,97111.03
2022-10-03T22:45:53.720Z,97111.78
2022-10-03T22:48:23.439Z,97120.34
2022-10-03T22:50:53.479Z,97114.91
2022-10-03T22:53:26.881Z,97117.59
2022-10-03T22:55:58.439Z,97124.56
2022-10-03T22:58:28.608Z,97121.94
2022-10-03T23:01:01.191Z,97119.28
2022-10-03T23:03:33.626Z,97116.81
2022-10-03T23:06:29.754Z,97121.91
2022-10-03T23:09:07.951Z,97126.03
2022-10-03T23:11:37.728Z,97110.63
2022-10-03T23:14:14.394Z,97124.94
2022-10-03T23:16:53.380Z,97127.06
2022-10-03T23:19:31.664Z,97129.34
2022-10-03T23:22:01.179Z,97127.53
2022-10-03T23:24:33.546Z,97118.72
2022-10-03T23:27:36.832Z,97116.06
2022-10-03T23:30:55.280Z,97124.94
2022-10-03T23:33:51.133Z,97122.28
2022-10-03T23:36:24.235Z,97120.63
2022-10-03T23:39:02.413Z,97121.28
2022-10-03T23:41:44.364Z,97117.38
2022-10-03T23:44:41.996Z,97107.09
2022-10-03T23:47:15.049Z,97109.16
2022-10-03T23:49:48.173Z,97098.06
2022-10-03T23:52:23.742Z,97097.06
2022-10-03T23:54:54.344Z,97096.88
2022-10-03T23:57:25.242Z,97097.06
2022-10-03T23:59:52.971Z,97100.19
